TimeEST,TemperatureF,Dew PointF,Humidity,Sea Level PressureIn,VisibilityMPH,Wind Direction,Wind SpeedMPH,Gust SpeedMPH,PrecipitationIn,Events,Conditions,WindDirDegrees,DateUTC
12:15 AM,66.6,52.2,60,29.82,10.0,SW,12.7,-,N/A,,Overcast,230,2014-02-21 05:15:00
12:35 AM,67.1,52.2,59,29.81,10.0,WSW,12.7,21.9,N/A,,Overcast,240,2014-02-21 05:35:00
12:55 AM,67.1,52.2,59,29.81,10.0,SW,16.1,23.0,N/A,,Overcast,220,2014-02-21 05:55:00
1:15 AM,66.7,52.0,59,29.80,10.0,SW,15.0,19.6,N/A,,Scattered Clouds,220,2014-02-21 06:15:00
1:35 AM,67.1,52.3,59,29.79,10.0,SW,15.0,21.9,N/A,,Clear,230,2014-02-21 06:35:00
1:55 AM,67.1,52.2,59,29.78,10.0,SW,11.5,20.7,N/A,,Mostly Cloudy,220,2014-02-21 06:55:00
2:15 AM,66.6,52.3,60,29.76,10.0,SSW,13.8,21.9,N/A,,Scattered Clouds,210,2014-02-21 07:15:00
2:35 AM,66.7,52.7,61,29.76,10.0,SW,13.8,23.0,N/A,,Clear,220,2014-02-21 07:35:00
2:55 AM,66.7,52.3,60,29.74,10.0,SW,13.8,21.9,N/A,,Scattered Clouds,220,2014-02-21 07:55:00
3:15 AM,66.7,52.3,60,29.74,10.0,SSW,13.8,20.7,N/A,,Mostly Cloudy,210,2014-02-21 08:15:00
3:35 AM,67.1,52.3,59,29.73,10.0,SW,18.4,24.2,N/A,,Overcast,220,2014-02-21 08:35:00
3:55 AM,66.9,52.5,60,29.73,10.0,SSW,15.0,-,N/A,,Overcast,210,2014-02-21 08:55:00
4:15 AM,60.1,56.3,87,29.78,4.0,WNW,21.9,42.6,0.07,Rain,Heavy Rain,290,2014-02-21 09:15:00
4:35 AM,57.4,56.7,97,29.78,7.0,WNW,12.7,20.7,0.11,Rain,Light Rain,290,2014-02-21 09:35:00
4:55 AM,57.2,56.7,98,29.79,5.0,West,13.8,26.5,0.17,Rain,Heavy Rain,280,2014-02-21 09:55:00
5:15 AM,56.7,56.7,100,29.80,5.0,West,16.1,26.5,0.12,Rain,Rain,270,2014-02-21 10:15:00
5:35 AM,56.5,56.5,100,29.78,10.0,West,12.7,19.6,0.13,Rain,Rain,260,2014-02-21 10:35:00
5:55 AM,56.5,56.5,100,29.76,10.0,WSW,12.7,18.4,0.14,,Overcast,250,2014-02-21 10:55:00
6:15 AM,56.3,56.3,100,29.78,5.0,WSW,11.5,17.3,0.06,Rain,Heavy Rain,250,2014-02-21 11:15:00
6:35 AM,55.8,55.8,100,29.80,5.0,WSW,9.2,-,0.16,Rain,Heavy Rain,240,2014-02-21 11:35:00
6:55 AM,55.8,55.8,100,29.81,5.0,West,10.4,16.1,0.29,Rain,Rain,270,2014-02-21 11:55:00
7:15 AM,55.4,55.4,100,29.78,7.0,SW,9.2,-,0.09,Rain,Heavy Rain,230,2014-02-21 12:15:00
7:35 AM,54.5,54.5,100,29.81,10.0,WNW,13.8,18.4,0.13,Rain,Light Rain,300,2014-02-21 12:35:00
7:55 AM,51.3,50.9,99,29.85,1.8,NNW,25.3,33.4,0.14,,Drizzle,330,2014-02-21 12:55:00
8:15 AM,46.6,45.3,95,29.90,2.5,NW,16.1,27.6,N/A,Rain,Rain,310,2014-02-21 13:15:00
8:35 AM,44.6,43.2,95,29.94,5.0,WNW,16.1,32.2,N/A,,Overcast,290,2014-02-21 13:35:00
8:55 AM,43.7,42.8,97,29.97,2.5,WNW,9.2,20.7,N/A,Rain,Rain,290,2014-02-21 13:55:00
9:15 AM,42.4,41.7,97,29.98,5.0,WNW,9.2,19.6,0.01,,Light Drizzle,290,2014-02-21 14:15:00
9:35 AM,42.4,41.2,95,29.99,10.0,WNW,6.9,-,0.01,,Overcast,290,2014-02-21 14:35:00
9:55 AM,41.9,39.0,90,29.99,10.0,West,11.5,17.3,0.01,,Overcast,270,2014-02-21 14:55:00
10:15 AM,42.1,39.4,90,29.99,10.0,West,8.1,-,N/A,,Overcast,260,2014-02-21 15:15:00
10:35 AM,42.3,37.9,85,29.99,10.0,West,6.9,-,N/A,,Overcast,270,2014-02-21 15:35:00
10:55 AM,43.0,38.3,84,29.99,10.0,WSW,11.5,-,N/A,,Mostly Cloudy,240,2014-02-21 15:55:00
11:15 AM,43.9,36.5,75,29.98,10.0,West,12.7,-,N/A,,Scattered Clouds,260,2014-02-21 16:15:00
11:35 AM,44.4,34.7,69,29.97,10.0,West,9.2,16.1,N/A,,Scattered Clouds,270,2014-02-21 16:35:00
11:55 AM,44.6,35.6,71,29.96,10.0,WSW,13.8,-,N/A,,Scattered Clouds,250,2014-02-21 16:55:00
12:15 PM,46.8,35.8,66,29.95,10.0,West,12.7,19.6,N/A,,Scattered Clouds,270,2014-02-21 17:15:00
12:35 PM,47.3,32.7,57,29.95,10.0,WNW,11.5,18.4,N/A,,Clear,290,2014-02-21 17:35:00
12:55 PM,48.2,32.2,54,29.94,10.0,West,15.0,21.9,N/A,,Clear,270,2014-02-21 17:55:00
1:15 PM,48.6,31.3,51,29.93,10.0,West,13.8,20.7,N/A,,Clear,280,2014-02-21 18:15:00
1:35 PM,49.5,31.8,51,29.93,10.0,West,13.8,24.2,N/A,,Clear,280,2014-02-21 18:35:00
1:55 PM,50.0,31.6,49,29.92,10.0,WNW,13.8,25.3,N/A,,Clear,300,2014-02-21 18:55:00
2:15 PM,51.1,32.0,48,29.92,10.0,West,15.0,24.2,N/A,,Clear,270,2014-02-21 19:15:00
2:35 PM,52.2,33.1,48,29.92,10.0,West,15.0,20.7,N/A,,Clear,280,2014-02-21 19:35:00
2:55 PM,52.0,31.8,46,29.93,10.0,West,15.0,23.0,N/A,,Clear,280,2014-02-21 19:55:00
3:15 PM,53.1,30.2,42,29.93,10.0,WNW,9.2,-,N/A,,Clear,290,2014-02-21 20:15:00
3:35 PM,52.9,27.9,38,29.93,10.0,WNW,13.8,21.9,N/A,,Clear,290,2014-02-21 20:35:00
3:55 PM,52.9,26.6,36,29.94,10.0,West,16.1,23.0,N/A,,Clear,280,2014-02-21 20:55:00
4:15 PM,53.1,27.3,37,29.94,10.0,West,16.1,23.0,N/A,,Clear,280,2014-02-21 21:15:00
4:35 PM,52.2,27.9,39,29.95,10.0,West,15.0,21.9,N/A,,Clear,280,2014-02-21 21:35:00
4:55 PM,52.2,27.9,39,29.95,10.0,West,11.5,-,N/A,,Clear,280,2014-02-21 21:55:00
5:15 PM,51.4,27.7,40,29.96,10.0,WNW,9.2,21.9,N/A,,Clear,300,2014-02-21 22:15:00
5:35 PM,50.9,28.2,42,29.98,10.0,WNW,11.5,18.4,N/A,,Clear,290,2014-02-21 22:35:00
5:55 PM,50.0,27.9,42,29.99,10.0,West,15.0,20.7,N/A,,Clear,270,2014-02-21 22:55:00
6:15 PM,48.4,28.2,46,29.99,10.0,West,10.4,17.3,N/A,,Clear,280,2014-02-21 23:15:00
6:35 PM,47.7,28.0,47,30.00,10.0,West,8.1,-,N/A,,Clear,280,2014-02-21 23:35:00
6:55 PM,46.9,27.9,48,30.00,10.0,West,6.9,-,N/A,,Clear,280,2014-02-21 23:55:00
7:15 PM,46.4,28.0,49,30.01,10.0,West,6.9,-,N/A,,Clear,280,2014-02-22 00:15:00
7:35 PM,45.3,28.4,52,30.02,10.0,West,4.6,-,N/A,,Clear,270,2014-02-22 00:35:00
7:55 PM,44.1,28.4,54,30.02,10.0,West,5.8,-,N/A,,Clear,280,2014-02-22 00:55:00
8:15 PM,43.9,28.4,55,30.02,10.0,West,5.8,-,N/A,,Clear,270,2014-02-22 01:15:00
8:35 PM,43.7,28.8,56,30.02,10.0,West,3.5,-,N/A,,Clear,280,2014-02-22 01:35:00
8:55 PM,43.7,28.8,56,30.02,10.0,Calm,Calm,-,N/A,,Clear,0,2014-02-22 01:55:00
9:15 PM,43.0,28.8,57,30.04,10.0,Calm,Calm,-,N/A,,Clear,0,2014-02-22 02:15:00
9:35 PM,41.5,29.3,62,30.04,10.0,Calm,Calm,-,N/A,,Clear,0,2014-02-22 02:35:00
9:55 PM,39.0,29.3,68,30.05,10.0,NW,3.5,-,N/A,,Clear,310,2014-02-22 02:55:00
10:15 PM,37.9,29.1,71,30.05,10.0,Calm,Calm,-,N/A,,Clear,0,2014-02-22 03:15:00
10:35 PM,40.1,28.4,63,30.06,10.0,WNW,3.5,-,N/A,,Clear,290,2014-02-22 03:35:00
10:55 PM,39.7,28.4,64,30.06,10.0,NW,3.5,-,N/A,,Clear,320,2014-02-22 03:55:00
11:15 PM,37.2,28.4,70,30.06,10.0,Calm,Calm,-,N/A,,Clear,0,2014-02-22 04:15:00
11:35 PM,36.3,29.1,75,30.06,10.0,Calm,Calm,-,N/A,,Clear,0,2014-02-22 04:35:00
11:55 PM,34.7,29.1,80,30.06,10.0,Calm,Calm,-,N/A,,Clear,0,2014-02-22 04:55:00